Time;durP1;ratioP1;P1;durP2;ratioP2;P2;SDS_P1;SDS_P2;PMS_P1;PMS_P2;Temp;Humidity;BMP_temperature;BMP_pressure;BME280_temperature;BME280_humidity;BME280_pressure;Samples;Min_cycle;Max_cycle;Signal;HPM_P1;HPM_P2
2023/03/27 00:00:37;;;;;;;4.40;1.30;;;;;;;1.68;78.40;98384.54;106361;1286;71273;-67
2023/03/27 00:03:27;;;;;;;5.00;1.30;;;;;;;1.58;78.63;98387.83;106347;1286;57062;-69
2023/03/27 00:06:15;;;;;;;5.90;1.50;;;;;;;1.47;78.71;98387.16;106288;1286;60168;-70
2023/03/27 00:09:03;;;;;;;6.00;1.60;;;;;;;1.37;79.13;98385.40;106501;1286;72190;-69
2023/03/27 00:11:51;;;;;;;5.70;1.60;;;;;;;1.27;79.50;98384.67;106391;1286;67885;-67
2023/03/27 00:14:37;;;;;;;5.10;1.40;;;;;;;1.19;79.74;98386.17;106414;1286;72530;-67
2023/03/27 00:17:24;;;;;;;4.70;1.20;;;;;;;1.13;80.25;98386.77;106357;1289;57431;-70
2023/03/27 00:20:10;;;;;;;6.40;1.40;;;;;;;1.06;80.35;98390.20;106368;1286;58805;-69
2023/03/27 00:22:57;;;;;;;5.20;1.30;;;;;;;1.00;80.80;98391.23;106311;1286;70949;-68
2023/03/27 00:25:45;;;;;;;6.80;2.00;;;;;;;0.97;81.29;98391.65;105501;1286;1002907;-66
2023/03/27 00:28:31;;;;;;;7.60;1.70;;;;;;;0.92;81.32;98391.61;106440;1286;72557;-70
2023/03/27 00:31:18;;;;;;;6.00;1.60;;;;;;;0.89;81.59;98394.98;106326;1289;57415;-68
2023/03/27 00:34:05;;;;;;;5.90;1.60;;;;;;;0.85;81.65;98390.84;106372;1286;60340;-68
2023/03/27 00:36:52;;;;;;;5.40;1.60;;;;;;;0.82;81.95;98386.34;106508;1286;72140;-69
2023/03/27 00:39:40;;;;;;;5.80;1.80;;;;;;;0.80;82.61;98386.61;106427;1286;65832;-66
2023/03/27 00:42:27;;;;;;;5.00;1.40;;;;;;;0.81;82.81;98384.27;106430;1286;72601;-68
2023/03/27 00:45:18;;;;;;;7.30;1.60;;;;;;;0.82;83.00;98381.65;105656;1286;1002393;-68
2023/03/27 00:48:07;;;;;;;5.60;1.40;;;;;;;0.81;83.07;98377.14;106431;1287;58784;-67
2023/03/27 00:50:56;;;;;;;5.50;1.50;;;;;;;0.80;83.69;98376.36;105776;1286;1003103;-68
2023/03/27 00:53:44;;;;;;;5.20;1.40;;;;;;;0.78;83.71;98373.82;105709;1286;1002355;-68
2023/03/27 00:56:32;;;;;;;5.70;1.50;;;;;;;0.77;84.20;98370.79;106430;1286;71999;-66
2023/03/27 00:59:22;;;;;;;7.00;1.90;;;;;;;0.75;84.37;98364.98;106360;1286;57792;-68
2023/03/27 01:02:10;;;;;;;4.50;1.30;;;;;;;0.74;84.73;98360.83;106501;1286;60278;-70
2023/03/27 01:04:57;;;;;;;5.00;1.50;;;;;;;0.71;84.72;98357.52;106416;1286;71112;-68
2023/03/27 01:07:46;;;;;;;5.70;1.60;;;;;;;0.69;84.89;98363.59;106464;1286;67708;-65
2023/03/27 01:11:19;;;;;;;5.50;1.30;;;;;;;0.66;85.26;98362.51;106377;1286;71553;-66
2023/03/27 01:14:42;;;;;;;6.20;1.40;;;;;;;0.63;85.68;98358.89;106505;1286;57135;-68
2023/03/27 01:18:05;;;;;;;6.20;1.50;;;;;;;0.61;85.80;98352.73;106604;1286;60191;-66
2023/03/27 01:21:13;;;;;;;6.30;1.50;;;;;;;0.59;86.06;98351.81;106248;1286;72343;-66
2023/03/27 01:24:44;;;;;;;6.00;1.60;;;;;;;0.57;86.36;98353.16;106530;1286;67684;-66
2023/03/27 01:27:57;;;;;;;7.20;1.90;;;;;;;0.56;86.45;98353.92;106494;1287;70285;-68
2023/03/27 01:31:16;;;;;;;6.30;1.60;;;;;;;0.56;86.90;98360.23;106414;1286;57512;-68
2023/03/27 01:34:13;;;;;;;6.00;1.70;;;;;;;0.55;86.85;98366.42;106501;1286;60535;-66
2023/03/27 01:37:31;;;;;;;8.10;1.90;;;;;;;0.54;87.03;98372.40;106428;1288;70791;-69
2023/03/27 01:40:31;;;;;;;5.40;1.80;;;;;;;0.53;87.16;98377.15;106540;1286;66378;-66
2023/03/27 01:43:35;;;;;;;6.40;1.50;;;;;;;0.55;88.06;98382.26;106402;1286;72794;-66
2023/03/27 01:46:40;;;;;;;5.50;1.80;;;;;;;0.60;88.15;98388.05;106513;1286;58949;-65
2023/03/27 01:49:38;;;;;;;5.90;1.80;;;;;;;0.68;88.62;98392.27;106489;1286;60387;-67
2023/03/27 01:52:32;;;;;;;6.70;2.10;;;;;;;0.75;88.68;98393.39;106510;1286;72364;-68
2023/03/27 01:55:24;;;;;;;6.10;1.60;;;;;;;0.81;89.45;98398.40;106437;1286;67746;-66
2023/03/27 01:58:28;;;;;;;4.50;1.30;;;;;;;0.88;89.78;98398.02;106482;1286;72970;-65
2023/03/27 02:01:21;;;;;;;4.80;1.50;;;;;;;0.91;90.29;98400.39;106404;1286;56964;-67
2023/03/27 02:04:22;;;;;;;5.70;1.50;;;;;;;0.96;90.53;98397.98;106424;1286;59160;-66
2023/03/27 02:07:17;;;;;;;5.60;1.70;;;;;;;1.01;90.59;98399.23;106415;1286;72436;-66
2023/03/27 02:10:14;;;;;;;5.60;1.70;;;;;;;1.06;91.07;98404.55;106400;1286;67774;-68
2023/03/27 02:13:08;;;;;;;5.20;1.50;;;;;;;1.07;91.24;98411.66;106351;1286;72624;-67
2023/03/27 02:15:58;;;;;;;4.90;1.60;;;;;;;1.07;91.50;98417.92;106479;1286;57117;-67
2023/03/27 02:19:00;;;;;;;5.10;1.50;;;;;;;1.07;91.66;98423.33;106512;1286;59802;-67
2023/03/27 02:21:47;;;;;;;5.70;1.60;;;;;;;1.07;91.75;98435.20;106232;1286;72008;-66
2023/03/27 02:24:34;;;;;;;6.30;1.70;;;;;;;1.07;92.03;98437.63;106417;1286;66675;-67
2023/03/27 02:27:42;;;;;;;4.90;1.50;;;;;;;1.07;92.38;98442.55;106519;1286;72871;-64
2023/03/27 02:30:52;;;;;;;5.20;1.50;;;;;;;1.06;92.53;98439.81;106364;1286;57520;-65
2023/03/27 02:34:30;;;;;;;5.60;2.00;;;;;;;1.07;92.59;98443.76;106389;1286;59071;-68
2023/03/27 02:37:54;;;;;;;6.80;2.00;;;;;;;1.06;92.71;98443.98;106420;1286;70697;-66
2023/03/27 02:41:13;;;;;;;5.00;1.50;;;;;;;1.07;92.89;98444.28;106394;1286;66510;-67
2023/03/27 02:44:10;;;;;;;5.60;1.50;;;;;;;1.06;93.01;98452.41;106610;1286;73012;-68
2023/03/27 02:47:38;;;;;;;5.40;1.80;;;;;;;1.01;93.63;98458.13;106557;1286;57427;-65
2023/03/27 02:50:33;;;;;;;4.90;1.50;;;;;;;0.92;94.08;98458.16;106368;1286;61193;-66
2023/03/27 02:53:29;;;;;;;4.60;1.50;;;;;;;0.93;94.06;98465.30;106465;1286;72061;-65
2023/03/27 02:56:21;;;;;;;5.70;1.80;;;;;;;0.91;93.98;98472.54;106467;1286;66649;-66
2023/03/27 02:59:38;;;;;;;5.10;1.70;;;;;;;0.87;94.18;98475.05;106447;1286;72661;-68
2023/03/27 03:02:31;;;;;;;5.10;1.60;;;;;;;0.82;94.34;98472.60;106405;1286;58495;-66
2023/03/27 03:05:21;;;;;;;6.10;1.80;;;;;;;0.78;94.57;98480.15;106421;1286;60246;-69
2023/03/27 03:08:09;;;;;;;5.80;2.00;;;;;;;0.77;94.89;98489.65;106222;1290;72203;-67
2023/03/27 03:11:03;;;;;;;6.20;1.70;;;;;;;0.78;95.10;98492.05;106092;1291;66641;-67
2023/03/27 03:13:49;;;;;;;5.50;1.90;;;;;;;0.79;95.27;98501.58;106135;1291;73581;-69
2023/03/27 03:16:36;;;;;;;5.90;1.80;;;;;;;0.82;95.53;98506.98;106032;1292;58362;-65
2023/03/27 03:19:22;;;;;;;6.10;2.20;;;;;;;0.88;95.45;98508.38;106150;1290;60624;-68
2023/03/27 03:22:14;;;;;;;6.30;3.00;;;;;;;0.93;95.34;98508.21;106157;1290;72416;-69
2023/03/27 03:25:01;;;;;;;5.50;2.10;;;;;;;0.99;95.04;98511.19;106207;1291;67778;-68
2023/03/27 03:27:48;;;;;;;5.40;2.10;;;;;;;1.01;94.83;98513.14;106071;1290;72624;-65
2023/03/27 03:30:40;;;;;;;6.10;1.90;;;;;;;1.05;94.58;98514.80;106068;1290;58196;-66
2023/03/27 03:33:29;;;;;;;5.10;1.90;;;;;;;1.08;94.43;98520.56;106079;1291;59159;-68
2023/03/27 03:36:16;;;;;;;5.80;2.10;;;;;;;1.09;94.11;98523.83;106124;1291;71125;-67
2023/03/27 03:39:04;;;;;;;5.20;1.70;;;;;;;1.07;93.86;98525.69;106328;1286;67960;-68
2023/03/27 03:41:51;;;;;;;5.30;1.70;;;;;;;1.05;93.80;98525.51;106382;1286;72581;-67
2023/03/27 03:44:38;;;;;;;5.90;1.80;;;;;;;1.02;94.03;98530.52;106258;1286;57117;-67
2023/03/27 03:47:38;;;;;;;6.40;2.10;;;;;;;0.99;93.91;98534.18;106433;1286;60359;-65
2023/03/27 03:50:24;;;;;;;6.30;2.50;;;;;;;0.98;94.00;98537.94;106492;1286;72379;-68
2023/03/27 03:53:13;;;;;;;7.20;2.40;;;;;;;0.97;93.94;98533.14;106401;1286;68024;-66
2023/03/27 03:56:00;;;;;;;6.70;2.50;;;;;;;0.95;93.93;98533.23;106333;1286;72479;-67
2023/03/27 03:58:47;;;;;;;6.10;2.20;;;;;;;0.95;94.17;98536.05;106233;1286;58928;-68
2023/03/27 04:01:34;;;;;;;6.00;2.20;;;;;;;0.98;94.58;98541.09;106348;1291;61188;-69
2023/03/27 04:04:22;;;;;;;6.10;2.20;;;;;;;1.00;94.33;98544.09;106409;1288;72384;-67
2023/03/27 04:07:30;;;;;;;6.10;2.30;;;;;;;0.99;94.13;98540.14;106371;1286;67883;-69
2023/03/27 04:10:30;;;;;;;7.20;2.70;;;;;;;1.00;94.12;98541.15;106348;1286;72674;-69
2023/03/27 04:13:18;;;;;;;7.00;2.50;;;;;;;1.01;94.30;98538.97;106352;1289;57111;-72
2023/03/27 04:16:20;;;;;;;6.70;2.70;;;;;;;1.00;94.21;98539.71;106284;1286;58962;-67
2023/03/27 04:19:09;;;;;;;7.80;3.00;;;;;;;0.96;93.89;98534.55;106388;1286;70851;-69
2023/03/27 04:22:00;;;;;;;7.70;3.20;;;;;;;0.94;94.12;98540.63;106383;1286;68037;-70
2023/03/27 04:24:49;;;;;;;7.50;3.30;;;;;;;0.94;94.39;98536.98;106213;1288;71319;-71
2023/03/27 04:27:37;;;;;;;7.30;3.30;;;;;;;0.94;94.58;98539.08;106285;1286;57620;-68
2023/03/27 04:30:35;;;;;;;8.50;3.80;;;;;;;0.93;94.34;98545.27;106305;1286;61228;-67
2023/03/27 04:33:45;;;;;;;8.10;3.50;;;;;;;0.91;94.51;98554.94;106404;1286;72717;-71
2023/03/27 04:37:01;;;;;;;9.10;3.70;;;;;;;0.90;94.40;98558.54;106311;1286;68968;-67
2023/03/27 04:39:48;;;;;;;7.60;3.30;;;;;;;0.89;94.71;98559.48;106385;1286;72648;-69
2023/03/27 04:42:42;;;;;;;12.80;5.00;;;;;;;0.88;94.55;98560.22;106383;1286;58956;-68
2023/03/27 04:45:31;;;;;;;17.10;6.40;;;;;;;0.89;94.58;98558.92;106397;1286;60320;-70
2023/03/27 04:48:18;;;;;;;22.00;7.90;;;;;;;0.91;94.84;98566.85;106354;1286;72193;-70
2023/03/27 04:51:08;;;;;;;16.80;6.40;;;;;;;0.96;96.22;98570.20;106122;1289;67766;-71
2023/03/27 04:53:55;;;;;;;18.50;6.20;;;;;;;1.03;96.29;98571.02;105950;1290;71736;-69
2023/03/27 04:56:44;;;;;;;11.80;5.60;;;;;;;1.05;95.86;98568.63;105976;1290;57002;-68
2023/03/27 04:59:30;;;;;;;21.50;10.00;;;;;;;1.05;95.38;98568.44;106199;1290;58837;-72
2023/03/27 05:02:35;;;;;;;15.30;8.00;;;;;;;1.06;95.32;98571.02;105385;1289;1002233;-70
2023/03/27 05:05:29;;;;;;;9.20;4.20;;;;;;;1.07;95.07;98568.15;105893;1290;67934;-70
2023/03/27 05:08:17;;;;;;;9.90;4.10;;;;;;;1.11;94.84;98563.54;105999;1289;71217;-72
2023/03/27 05:11:04;;;;;;;9.40;3.80;;;;;;;1.16;95.17;98559.34;106162;1291;58654;-70
2023/03/27 05:13:59;;;;;;;9.70;3.20;;;;;;;1.23;94.83;98559.80;105874;1290;60158;-71
2023/03/27 05:16:51;;;;;;;8.00;3.00;;;;;;;1.28;94.53;98562.07;105996;1291;71141;-67
2023/03/27 05:19:38;;;;;;;7.50;2.90;;;;;;;1.34;94.17;98565.73;106254;1289;66697;-68
2023/03/27 05:22:25;;;;;;;8.20;3.40;;;;;;;1.42;93.89;98568.05;106312;1286;72612;-67
2023/03/27 05:25:21;;;;;;;7.90;2.60;;;;;;;1.44;92.87;98578.73;106387;1286;57117;-70
2023/03/27 05:28:08;;;;;;;6.60;2.40;;;;;;;1.47;92.72;98578.56;106415;1286;60140;-70
2023/03/27 05:30:55;;;;;;;7.20;2.30;;;;;;;1.50;92.75;98586.20;106324;1286;70061;-69
2023/03/27 05:33:43;;;;;;;6.60;2.20;;;;;;;1.50;91.87;98590.97;106374;1286;68079;-71
2023/03/27 05:36:30;;;;;;;6.30;2.40;;;;;;;1.47;91.93;98599.72;106342;1286;73725;-69
2023/03/27 05:39:19;;;;;;;6.70;2.60;;;;;;;1.44;91.79;98603.08;106366;1286;59172;-67
2023/03/27 05:42:06;;;;;;;7.70;2.80;;;;;;;1.43;92.07;98604.70;106420;1286;60264;-71
2023/03/27 05:44:55;;;;;;;8.10;3.00;;;;;;;1.46;92.33;98603.48;106428;1286;70865;-69
2023/03/27 05:47:52;;;;;;;7.00;2.80;;;;;;;1.47;92.01;98604.42;106553;1286;68862;-70
2023/03/27 05:50:40;;;;;;;6.60;2.50;;;;;;;1.50;92.30;98603.71;106340;1286;73234;-70
2023/03/27 05:53:38;;;;;;;7.70;2.70;;;;;;;1.54;92.22;98608.36;106399;1287;57059;-69
2023/03/27 05:56:36;;;;;;;6.50;2.40;;;;;;;1.57;92.07;98615.34;106405;1286;60314;-70
2023/03/27 05:59:23;;;;;;;6.50;2.60;;;;;;;1.57;92.02;98620.05;106404;1286;71114;-71
2023/03/27 06:02:17;;;;;;;8.50;3.40;;;;;;;1.55;91.92;98621.92;106444;1286;66743;-70
2023/03/27 06:05:13;;;;;;;7.40;2.70;;;;;;;1.56;92.13;98623.09;106408;1286;72831;-71
2023/03/27 06:08:01;;;;;;;9.20;3.60;;;;;;;1.56;92.33;98621.70;106345;1286;57710;-70
2023/03/27 06:10:48;;;;;;;8.50;3.60;;;;;;;1.63;92.07;98630.19;106350;1286;60166;-68
2023/03/27 06:13:42;;;;;;;8.00;3.40;;;;;;;1.70;92.18;98634.42;106315;1286;72851;-72
2023/03/27 06:16:30;;;;;;;10.00;3.40;;;;;;;1.78;92.05;98637.08;106423;1286;68401;-69
2023/03/27 06:19:32;;;;;;;8.00;3.50;;;;;;;1.82;91.39;98643.27;106342;1286;72896;-71
2023/03/27 06:22:19;;;;;;;8.70;3.40;;;;;;;1.89;91.15;98646.54;106219;1286;57301;-69
2023/03/27 06:25:07;;;;;;;7.70;2.60;;;;;;;1.93;90.39;98651.38;106418;1286;60483;-69
2023/03/27 06:27:54;;;;;;;7.00;2.40;;;;;;;1.92;89.80;98656.65;106537;1286;72330;-73
2023/03/27 06:30:41;;;;;;;6.20;2.10;;;;;;;1.85;89.34;98662.33;106409;1286;67882;-69
2023/03/27 06:33:45;;;;;;;6.50;2.10;;;;;;;1.80;89.43;98663.36;106328;1286;72639;-71
2023/03/27 06:37:04;;;;;;;6.10;2.20;;;;;;;1.77;89.88;98670.69;105505;1288;1002789;-72
2023/03/27 06:39:56;;;;;;;6.70;2.20;;;;;;;1.70;89.64;98672.54;106416;1286;59000;-71
2023/03/27 06:43:04;;;;;;;7.00;2.60;;;;;;;1.60;89.76;98675.09;106397;1286;70794;-74
2023/03/27 06:45:56;;;;;;;5.70;1.60;;;;;;;1.48;89.86;98683.02;106458;1286;67784;-71
2023/03/27 06:49:02;;;;;;;5.60;1.60;;;;;;;1.33;89.57;98686.37;106420;1286;72707;-73
2023/03/27 06:51:49;;;;;;;5.50;1.70;;;;;;;1.28;90.22;98694.39;106411;1286;58872;-72
2023/03/27 06:54:39;;;;;;;5.60;1.80;;;;;;;1.27;90.59;98701.80;106387;1286;60501;-71
2023/03/27 06:57:26;;;;;;;5.40;1.70;;;;;;;1.25;90.53;98704.17;106363;1286;72706;-70
2023/03/27 07:00:23;;;;;;;5.60;1.60;;;;;;;1.24;91.05;98705.27;106281;1286;66830;-72
2023/03/27 07:03:33;;;;;;;5.00;1.50;;;;;;;1.27;90.04;98707.39;106405;1286;71364;-70
2023/03/27 07:06:49;;;;;;;5.70;1.80;;;;;;;1.38;90.31;98714.41;105600;1286;1015723;-72
2023/03/27 07:09:36;;;;;;;5.10;1.40;;;;;;;1.45;89.59;98721.28;105647;1286;1002156;-72
2023/03/27 07:12:26;;;;;;;6.70;1.80;;;;;;;1.51;89.13;98724.44;106232;1290;72383;-71
2023/03/27 07:15:15;;;;;;;7.00;2.10;;;;;;;1.53;88.28;98729.59;106145;1290;67702;-68
2023/03/27 07:18:05;;;;;;;7.00;2.40;;;;;;;1.51;87.55;98735.64;106205;1289;71196;-70
2023/03/27 07:20:52;;;;;;;5.70;1.50;;;;;;;1.51;87.79;98739.11;106147;1289;57119;-72
2023/03/27 07:23:41;;;;;;;5.40;2.00;;;;;;;1.53;87.76;98741.45;105501;1289;1002394;-71
2023/03/27 07:26:32;;;;;;;6.30;1.90;;;;;;;1.61;87.56;98746.41;106195;1290;71097;-69
2023/03/27 07:29:20;;;;;;;6.50;1.70;;;;;;;1.66;86.96;98754.43;105473;1290;1002331;-70
2023/03/27 07:32:10;;;;;;;5.70;1.30;;;;;;;1.59;85.82;98761.22;106109;1290;71562;-69
2023/03/27 07:35:05;;;;;;;6.30;1.50;;;;;;;1.44;86.16;98767.36;106088;1292;57087;-71
2023/03/27 07:38:11;;;;;;;5.60;1.60;;;;;;;1.46;87.36;98767.55;105985;1290;59167;-69
2023/03/27 07:41:05;;;;;;;6.30;1.90;;;;;;;1.62;87.76;98771.85;106201;1289;71083;-71
2023/03/27 07:44:18;;;;;;;6.10;1.90;;;;;;;1.73;87.27;98775.58;106530;1286;67853;-69
2023/03/27 07:47:14;;;;;;;6.00;1.50;;;;;;;1.71;86.63;98776.36;106432;1286;72538;-72
2023/03/27 07:50:01;;;;;;;6.10;1.50;;;;;;;1.72;86.99;98779.10;106364;1286;57683;-70
2023/03/27 07:52:49;;;;;;;5.40;1.50;;;;;;;1.77;86.77;98786.85;106358;1286;58905;-70
2023/03/27 07:55:36;;;;;;;5.70;1.80;;;;;;;1.75;86.94;98792.05;106294;1287;72202;-69
2023/03/27 07:58:26;;;;;;;6.90;1.80;;;;;;;1.60;87.27;98800.13;106406;1286;65754;-68
2023/03/27 08:01:14;;;;;;;5.00;1.30;;;;;;;1.43;87.56;98802.00;106493;1286;72868;-71
2023/03/27 08:04:02;;;;;;;5.80;1.70;;;;;;;1.34;88.07;98809.88;106350;1286;58679;-70
2023/03/27 08:06:50;;;;;;;5.40;1.70;;;;;;;1.21;88.37;98823.40;106247;1286;59191;-71
2023/03/27 08:09:39;;;;;;;5.80;1.50;;;;;;;1.04;88.73;98831.94;106305;1289;70937;-67
2023/03/27 08:12:25;;;;;;;5.50;1.80;;;;;;;0.94;88.63;98828.84;106477;1287;67855;-70
2023/03/27 08:15:17;;;;;;;5.10;1.60;;;;;;;0.87;88.65;98831.48;106367;1289;72619;-72
2023/03/27 08:18:05;;;;;;;5.30;1.60;;;;;;;0.84;88.82;98836.92;106315;1287;57595;-71
2023/03/27 08:20:58;;;;;;;4.50;1.40;;;;;;;0.82;89.33;98844.18;106210;1287;59398;-70
2023/03/27 08:23:46;;;;;;;5.70;1.70;;;;;;;0.84;89.27;98846.52;106281;1286;72211;-69
2023/03/27 08:26:51;;;;;;;5.40;1.50;;;;;;;0.94;88.78;98854.48;106506;1287;66520;-70
2023/03/27 08:29:38;;;;;;;6.60;1.40;;;;;;;1.29;88.02;98853.85;106468;1287;71542;-70
2023/03/27 08:32:26;;;;;;;5.90;1.60;;;;;;;1.94;86.93;98846.69;106338;1289;57368;-71
2023/03/27 08:35:13;;;;;;;7.20;1.80;;;;;;;2.57;83.95;98849.92;106329;1286;60530;-70
2023/03/27 08:38:00;;;;;;;7.20;2.00;;;;;;;2.71;82.34;98850.98;106567;1288;70817;-70
2023/03/27 08:41:16;;;;;;;7.90;2.20;;;;;;;2.72;80.28;98851.95;106334;1286;67799;-72
2023/03/27 08:44:17;;;;;;;6.50;2.20;;;;;;;2.79;80.58;98851.88;106562;1288;73186;-68
2023/03/27 08:47:18;;;;;;;6.50;1.90;;;;;;;2.85;78.15;98857.02;106375;1286;57355;-69
2023/03/27 08:50:35;;;;;;;5.70;1.70;;;;;;;2.78;76.78;98859.96;106420;1288;58728;-72
2023/03/27 08:54:02;;;;;;;5.50;1.90;;;;;;;2.77;76.46;98868.41;106417;1287;72143;-68
2023/03/27 08:56:50;;;;;;;5.80;2.10;;;;;;;3.32;77.61;98868.36;106371;1286;67066;-71
2023/03/27 08:59:37;;;;;;;6.00;1.50;;;;;;;4.90;75.38;98864.71;106299;1286;72611;-70
2023/03/27 09:02:50;;;;;;;5.80;1.90;;;;;;;5.76;68.93;98861.50;106350;1287;58540;-70
2023/03/27 09:06:07;;;;;;;4.60;1.30;;;;;;;6.33;65.23;98865.55;106451;1287;58890;-70
2023/03/27 09:09:22;;;;;;;6.00;1.70;;;;;;;6.36;63.59;98869.38;106309;1289;72363;-71
2023/03/27 09:13:10;;;;;;;6.70;2.10;;;;;;;5.89;62.04;98872.15;106410;1286;67890;-70
2023/03/27 09:16:25;;;;;;;6.30;1.80;;;;;;;5.80;63.91;98871.38;105487;1300;72664;-71
2023/03/27 09:19:20;;;;;;;5.90;1.70;;;;;;;8.13;58.54;98870.27;105416;1300;57085;-70
2023/03/27 09:22:22;;;;;;;5.60;1.90;;;;;;;10.26;52.05;98866.00;105430;1303;59942;-71
2023/03/27 09:25:52;;;;;;;6.10;2.20;;;;;;;11.61;46.00;98868.46;105458;1300;72225;-72
2023/03/27 09:29:00;;;;;;;6.00;1.90;;;;;;;11.69;44.12;98869.73;105461;1299;66994;-71
2023/03/27 09:31:56;;;;;;;14.30;8.40;;;;;;;11.57;43.88;98872.27;105278;1299;70240;-72
2023/03/27 09:34:44;;;;;;;5.70;1.90;;;;;;;11.04;43.95;98876.41;105242;1301;59161;-72
2023/03/27 09:37:36;;;;;;;6.20;1.60;;;;;;;10.22;44.53;98883.00;105441;1299;60465;-73
2023/03/27 09:40:52;;;;;;;5.80;1.70;;;;;;;9.08;47.21;98891.18;105318;1300;72231;-73
2023/03/27 09:43:52;;;;;;;6.40;1.70;;;;;;;7.78;49.79;98904.02;105460;1300;68089;-73
2023/03/27 09:46:46;;;;;;;6.10;1.60;;;;;;;6.93;52.59;98909.29;105412;1300;72685;-72
2023/03/27 09:49:34;;;;;;;5.90;1.70;;;;;;;6.34;53.93;98912.48;105426;1293;57185;-69
2023/03/27 09:52:37;;;;;;;5.10;1.80;;;;;;;6.51;54.25;98915.25;106200;1286;59287;-72
2023/03/27 09:55:54;;;;;;;6.00;1.80;;;;;;;7.23;54.81;98917.60;106424;1286;72552;-72
2023/03/27 09:58:47;;;;;;;5.80;1.60;;;;;;;8.07;50.42;98916.77;106387;1286;66496;-70
2023/03/27 10:01:34;;;;;;;5.70;1.50;;;;;;;9.30;48.90;98917.83;106318;1286;71133;-69
2023/03/27 10:04:28;;;;;;;6.00;2.00;;;;;;;11.36;46.35;98913.40;106366;1286;57348;-74
2023/03/27 10:07:25;;;;;;;7.20;1.90;;;;;;;13.25;41.05;98912.95;106416;1286;60140;-68
2023/03/27 10:10:36;;;;;;;5.20;1.40;;;;;;;12.69;38.69;98910.90;106504;1286;70837;-70
2023/03/27 10:13:28;;;;;;;5.70;1.60;;;;;;;10.97;39.39;98926.27;106466;1289;69061;-71
2023/03/27 10:16:19;;;;;;;5.10;1.50;;;;;;;9.51;42.63;98939.84;106391;1286;71090;-67
2023/03/27 10:19:29;;;;;;;5.40;1.40;;;;;;;8.03;45.07;98942.33;106356;1286;57157;-69
2023/03/27 10:22:35;;;;;;;5.30;1.40;;;;;;;6.84;48.76;98956.69;106303;1286;60217;-68
2023/03/27 10:25:33;;;;;;;6.10;1.60;;;;;;;5.84;52.09;98972.16;106390;1286;72373;-70
2023/03/27 10:28:45;;;;;;;5.60;1.70;;;;;;;5.14;54.85;98975.53;106415;1288;69275;-68
2023/03/27 10:31:48;;;;;;;6.00;2.20;;;;;;;4.84;55.92;98980.30;106223;1290;72500;-70
2023/03/27 10:34:57;;;;;;;6.20;2.00;;;;;;;5.11;56.97;98978.88;106159;1290;57132;-71
2023/03/27 10:38:14;;;;;;;5.30;1.70;;;;;;;5.42;56.31;98985.80;106195;1291;60457;-71
2023/03/27 10:41:37;;;;;;;5.30;1.50;;;;;;;6.47;53.36;98984.60;106145;1291;69816;-72
2023/03/27 10:44:27;;;;;;;6.30;1.90;;;;;;;7.36;50.81;98986.38;106115;1294;66362;-72
2023/03/27 10:47:25;;;;;;;5.40;1.70;;;;;;;8.58;47.61;98982.09;104629;1290;1003100;-69
2023/03/27 10:50:32;;;;;;;6.50;1.60;;;;;;;7.79;45.87;98987.62;106188;1289;57156;-70
2023/03/27 10:53:42;;;;;;;6.10;1.60;;;;;;;7.14;47.09;98994.55;106219;1289;60204;-73
2023/03/27 10:56:51;;;;;;;6.30;1.90;;;;;;;6.49;48.82;99008.09;106256;1289;72392;-71
2023/03/27 11:00:06;;;;;;;6.50;1.60;;;;;;;5.54;49.85;99025.37;106303;1289;67197;-67
2023/03/27 11:03:21;;;;;;;5.70;1.50;;;;;;;4.44;53.73;99038.63;106289;1286;71575;-71
2023/03/27 11:06:17;;;;;;;6.00;1.70;;;;;;;3.74;58.14;99045.56;105630;1286;1002314;-68
2023/03/27 11:09:17;;;;;;;4.80;1.30;;;;;;;3.37;60.97;99050.03;106378;1286;58455;-68
2023/03/27 11:12:18;;;;;;;5.50;1.60;;;;;;;3.11;62.14;99052.39;106380;1286;72193;-69
2023/03/27 11:15:41;;;;;;;5.00;1.40;;;;;;;2.85;62.75;99057.87;106387;1286;67292;-69
2023/03/27 11:19:10;;;;;;;6.30;1.70;;;;;;;2.80;62.93;99057.06;106371;1286;72717;-73
2023/03/27 11:22:27;;;;;;;6.30;1.30;;;;;;;3.05;61.76;99050.65;106498;1286;57021;-68
2023/03/27 11:25:50;;;;;;;5.80;1.60;;;;;;;2.92;60.95;99064.23;106389;1286;58766;-70
2023/03/27 11:28:48;;;;;;;5.90;1.80;;;;;;;2.62;61.45;99060.14;106060;1293;72372;-69
2023/03/27 11:31:48;;;;;;;6.40;1.70;;;;;;;2.42;60.20;99067.60;106161;1291;67717;-69
2023/03/27 11:35:02;;;;;;;5.30;1.60;;;;;;;2.25;59.84;99075.60;106128;1290;72904;-69
2023/03/27 11:38:20;;;;;;;5.30;1.60;;;;;;;2.17;59.19;99085.02;106066;1291;57172;-72
2023/03/27 11:41:12;;;;;;;4.80;1.30;;;;;;;2.03;57.09;99085.14;105965;1293;60865;-69
2023/03/27 11:44:01;;;;;;;4.90;1.50;;;;;;;2.02;56.19;99087.61;105253;1292;1002208;-71
2023/03/27 11:48:11;;;;;;;4.80;1.50;;;;;;;2.31;56.22;99091.17;105320;1291;1002240;-68
2023/03/27 11:51:21;;;;;;;4.60;1.40;;;;;;;2.70;54.80;99099.91;106127;1290;71539;-70
2023/03/27 11:54:29;;;;;;;6.30;1.50;;;;;;;2.68;53.71;99101.23;106117;1290;57950;-70
2023/03/27 11:57:25;;;;;;;7.00;2.20;;;;;;;2.54;54.29;99107.35;106040;1291;58915;-69
2023/03/27 12:00:30;;;;;;;5.50;1.80;;;;;;;2.49;54.44;99109.55;106317;1287;70812;-68
2023/03/27 12:04:12;;;;;;;6.70;2.00;;;;;;;2.28;53.16;99116.58;106411;1286;67796;-68
2023/03/27 12:07:28;;;;;;;6.20;1.50;;;;;;;2.12;54.15;99112.98;106401;1286;72337;-70
2023/03/27 12:10:37;;;;;;;5.30;1.60;;;;;;;2.58;54.61;99115.54;106387;1289;57182;-71
2023/03/27 12:14:34;;;;;;;5.40;1.40;;;;;;;3.36;51.19;99104.08;106281;1286;58882;-69
2023/03/27 12:17:56;;;;;;;4.20;1.10;;;;;;;3.29;51.03;99112.98;105868;1294;72542;-69
2023/03/27 12:21:19;;;;;;;4.90;1.50;;;;;;;3.01;49.46;99111.36;105906;1294;68014;-71
2023/03/27 12:24:55;;;;;;;5.30;1.50;;;;;;;2.68;50.22;99117.21;105826;1293;71521;-69
2023/03/27 12:28:19;;;;;;;4.60;1.10;;;;;;;2.56;51.47;99124.07;105905;1294;57406;-70
2023/03/27 12:31:59;;;;;;;4.90;1.30;;;;;;;2.43;51.19;99122.73;105908;1294;60294;-71
2023/03/27 12:34:56;;;;;;;5.70;1.70;;;;;;;2.42;51.67;99128.20;105870;1294;70872;-70
2023/03/27 12:37:57;;;;;;;5.30;1.30;;;;;;;2.30;51.06;99133.83;105880;1294;67673;-68
2023/03/27 12:40:59;;;;;;;5.00;1.70;;;;;;;2.24;52.29;99136.23;105611;1296;73104;-70
2023/03/27 12:43:54;;;;;;;4.70;1.50;;;;;;;2.23;52.18;99144.90;105698;1296;57003;-70
2023/03/27 12:47:21;;;;;;;5.60;1.50;;;;;;;2.39;51.79;99141.34;105672;1298;58725;-68
2023/03/27 12:50:25;;;;;;;5.10;1.10;;;;;;;2.40;50.01;99144.25;105602;1297;72232;-72
2023/03/27 12:53:32;;;;;;;5.20;1.50;;;;;;;2.38;49.24;99150.69;105753;1293;66691;-70
2023/03/27 12:56:33;;;;;;;5.00;1.30;;;;;;;2.37;49.71;99151.09;106079;1292;73862;-70
2023/03/27 12:59:26;;;;;;;9.00;1.60;;;;;;;2.33;49.33;99161.29;105269;1291;1002341;-70
2023/03/27 13:02:14;;;;;;;4.90;1.50;;;;;;;2.12;50.04;99163.73;106145;1291;59507;-69
2023/03/27 13:05:31;;;;;;;6.00;1.60;;;;;;;2.02;50.85;99168.63;105462;1291;1002251;-68
2023/03/27 13:08:43;;;;;;;5.70;1.50;;;;;;;1.98;51.76;99167.67;105407;1292;1002861;-67
2023/03/27 13:12:35;;;;;;;5.20;1.50;;;;;;;2.10;52.36;99183.08;106320;1286;72614;-70
2023/03/27 13:15:35;;;;;;;5.20;1.60;;;;;;;2.07;51.39;99186.74;106518;1286;57015;-68
2023/03/27 13:19:06;;;;;;;4.30;1.20;;;;;;;2.11;51.43;99184.95;106307;1286;60137;-68
2023/03/27 13:22:17;;;;;;;5.40;1.70;;;;;;;2.36;51.38;99192.64;106449;1286;70703;-68
2023/03/27 13:25:44;;;;;;;6.00;1.80;;;;;;;2.36;49.19;99194.69;106474;1286;68009;-70
2023/03/27 13:28:41;;;;;;;;;;;;;;;2.26;48.94;99201.78;106491;1289;71204;-70
2023/03/27 13:31:45;;;;;;;5.90;1.60;;;;;;;2.15;48.29;99206.78;106408;1286;57016;-70
2023/03/27 13:35:22;;;;;;;4.80;1.10;;;;;;;1.93;46.95;99213.95;106389;1286;58930;-71
2023/03/27 13:38:12;;;;;;;6.20;1.20;;;;;;;1.81;47.23;99214.45;106340;1289;73154;-69
2023/03/27 13:41:43;;;;;;;5.40;1.50;;;;;;;2.02;47.80;99214.64;106382;1286;66763;-69
2023/03/27 13:45:14;;;;;;;6.30;1.50;;;;;;;2.37;46.56;99206.76;106405;1286;73876;-70
2023/03/27 13:48:12;;;;;;;6.20;1.60;;;;;;;2.36;46.29;99215.90;106423;1286;57081;-70
2023/03/27 13:51:33;;;;;;;5.30;1.30;;;;;;;2.43;45.94;99224.63;106304;1286;60060;-69
2023/03/27 13:54:39;;;;;;;4.90;1.50;;;;;;;2.47;43.61;99224.73;106328;1289;72121;-70
2023/03/27 13:57:55;;;;;;;6.20;1.50;;;;;;;2.33;44.36;99221.16;106391;1286;68888;-69
2023/03/27 14:01:08;;;;;;;5.40;1.40;;;;;;;2.12;44.65;99230.58;106428;1286;73996;-68
2023/03/27 14:04:34;;;;;;;5.40;1.40;;;;;;;1.86;44.34;99228.34;106553;1286;57320;-72